Time;durP1;ratioP1;P1;durP2;ratioP2;P2;SDS_P1;SDS_P2;PMS_P1;PMS_P2;Temp;Humidity;BMP_temperature;BMP_pressure;BME280_temperature;BME280_humidity;BME280_pressure;Samples;Min_cycle;Max_cycle;Signal;HPM_P1;HPM_P2
2021/01/11 00:01:07;;;;;;;16.00;9.67;;;-1.40;99.90;;;;;;5031228;28;20183;-64
2021/01/11 00:03:32;;;;;;;13.82;9.43;;;-1.40;99.90;;;;;;5031108;28;20175;-65
2021/01/11 00:05:58;;;;;;;18.23;9.97;;;-1.50;99.90;;;;;;5030974;28;20187;-64
2021/01/11 00:08:23;;;;;;;13.53;8.40;;;-1.50;99.90;;;;;;5030680;28;20186;-64
2021/01/11 00:10:52;;;;;;;13.30;9.10;;;-1.40;99.90;;;;;;5031111;28;20283;-63
2021/01/11 00:13:17;;;;;;;14.55;9.38;;;-1.40;99.90;;;;;;5030929;28;20268;-66
2021/01/11 00:15:43;;;;;;;14.10;8.60;;;-1.20;99.90;;;;;;5030999;28;20657;-65
2021/01/11 00:18:09;;;;;;;13.97;9.40;;;-1.30;99.90;;;;;;5030815;28;20180;-65
2021/01/11 00:20:34;;;;;;;17.30;9.50;;;-1.40;99.90;;;;;;5030664;28;20195;-64
2021/01/11 00:23:00;;;;;;;12.93;9.13;;;-1.60;99.90;;;;;;5030832;28;20646;-64
2021/01/11 00:25:25;;;;;;;16.97;9.50;;;-1.80;99.90;;;;;;5029305;28;20605;-63
2021/01/11 00:27:51;;;;;;;16.33;9.37;;;-2.00;99.90;;;;;;5031049;28;20175;-65
2021/01/11 00:30:17;;;;;;;15.70;9.43;;;-2.20;99.90;;;;;;5030624;28;20237;-65
2021/01/11 00:32:43;;;;;;;15.32;8.73;;;-2.30;99.90;;;;;;5030847;28;20172;-64
2021/01/11 00:35:09;;;;;;;12.83;9.20;;;-2.10;99.90;;;;;;5030654;28;20526;-63
2021/01/11 00:37:36;;;;;;;15.45;8.90;;;-2.10;99.90;;;;;;5030743;28;20700;-63
2021/01/11 00:40:04;;;;;;;14.00;8.75;;;-2.00;99.90;;;;;;5031145;28;20257;-63
2021/01/11 00:42:35;;;;;;;14.32;8.48;;;-2.10;99.90;;;;;;5034523;28;20176;-63
2021/01/11 00:45:01;;;;;;;15.35;8.85;;;-2.10;99.90;;;;;;5034365;28;20262;-65
2021/01/11 00:47:27;;;;;;;15.68;8.95;;;-2.00;99.90;;;;;;5034671;28;20202;-64
2021/01/11 00:49:53;;;;;;;15.57;9.30;;;-2.10;99.90;;;;;;5034543;28;20657;-64
2021/01/11 00:52:18;;;;;;;13.70;8.63;;;-2.10;99.90;;;;;;5034492;28;20211;-64
2021/01/11 00:54:44;;;;;;;13.37;8.30;;;-1.90;99.90;;;;;;5034393;28;20215;-64
2021/01/11 00:57:10;;;;;;;13.00;8.23;;;-1.80;99.90;;;;;;5034523;28;20203;-65
2021/01/11 00:59:35;;;;;;;14.70;8.67;;;-1.70;99.90;;;;;;5034214;28;20553;-65
2021/01/11 01:02:01;;;;;;;13.90;8.27;;;-1.60;99.90;;;;;;5034244;28;20183;-63
2021/01/11 01:04:27;;;;;;;15.67;9.20;;;-1.70;99.90;;;;;;5034535;28;20262;-65
2021/01/11 01:06:53;;;;;;;14.07;8.65;;;-1.80;99.90;;;;;;5034259;28;20188;-64
2021/01/11 01:09:18;;;;;;;13.87;8.97;;;-1.80;99.90;;;;;;5033130;28;20194;-64
2021/01/11 01:11:44;;;;;;;15.80;8.63;;;-2.00;99.90;;;;;;5034082;28;20183;-65
2021/01/11 01:14:10;;;;;;;13.87;7.70;;;-1.90;99.90;;;;;;5033848;28;20253;-63
2021/01/11 01:16:36;;;;;;;14.57;8.47;;;-2.00;99.90;;;;;;5034167;28;20180;-66
2021/01/11 01:19:01;;;;;;;17.07;8.37;;;-1.90;99.90;;;;;;5034006;28;20454;-64
2021/01/11 01:21:28;;;;;;;14.33;8.03;;;-1.80;99.90;;;;;;5034000;28;20186;-64
2021/01/11 01:23:54;;;;;;;15.88;8.38;;;-1.70;99.90;;;;;;5033967;28;20175;-63
2021/01/11 01:26:20;;;;;;;14.37;7.93;;;-1.70;99.90;;;;;;5015078;28;20235;-63
2021/01/11 01:28:45;;;;;;;16.90;8.87;;;-1.60;99.90;;;;;;5012038;28;20184;-65
2021/01/11 01:31:12;;;;;;;13.07;7.90;;;-1.50;99.90;;;;;;5009524;28;20168;-64
2021/01/11 01:33:37;;;;;;;13.20;7.38;;;-1.50;99.90;;;;;;5013751;28;20183;-64
2021/01/11 01:36:03;;;;;;;11.57;7.17;;;-1.40;99.90;;;;;;5013667;28;20177;-62
2021/01/11 01:38:29;;;;;;;14.13;8.07;;;-1.40;99.90;;;;;;5012287;28;20180;-64
2021/01/11 01:40:55;;;;;;;13.27;7.47;;;-1.40;99.90;;;;;;5012606;28;20291;-63
2021/01/11 01:43:27;;;;;;;13.60;7.43;;;-1.40;99.90;;;;;;5012389;28;20184;-64
2021/01/11 01:45:53;;;;;;;11.38;7.00;;;-1.30;99.90;;;;;;5008562;28;20177;-64
2021/01/11 01:48:19;;;;;;;15.17;7.90;;;-1.30;99.90;;;;;;5013836;28;20239;-64
2021/01/11 01:50:45;;;;;;;14.37;9.03;;;-1.30;99.90;;;;;;5007857;28;20192;-65
2021/01/11 01:53:10;;;;;;;12.97;8.03;;;-1.30;99.90;;;;;;5011125;28;20181;-64
2021/01/11 01:55:37;;;;;;;14.97;8.60;;;-1.30;99.90;;;;;;5013312;28;20259;-64
2021/01/11 01:58:05;;;;;;;13.98;8.20;;;-1.30;99.90;;;;;;5006617;28;20179;-63
2021/01/11 02:00:32;;;;;;;12.35;7.97;;;-1.30;99.90;;;;;;5012346;28;20621;-64
2021/01/11 02:02:57;;;;;;;13.75;8.32;;;-1.30;99.90;;;;;;5005444;28;20223;-64
2021/01/11 02:05:23;;;;;;;12.50;8.10;;;-1.40;99.90;;;;;;5013588;28;20255;-63
2021/01/11 02:07:57;;;;;;;14.00;7.80;;;-1.50;99.90;;;;;;5005818;28;20646;-64
2021/01/11 02:11:00;;;;;;;14.43;8.32;;;-1.70;99.90;;;;;;5009646;28;20658;-65
2021/01/11 02:13:32;;;;;;;12.10;7.65;;;-1.90;99.90;;;;;;5012422;28;20175;-63
2021/01/11 02:16:18;;;;;;;12.82;8.60;;;-2.00;99.90;;;;;;5012022;28;20179;-64
2021/01/11 02:18:57;;;;;;;15.27;8.50;;;-2.10;99.90;;;;;;5009978;28;20181;-65
2021/01/11 02:22:07;;;;;;;17.50;8.30;;;-2.30;99.90;;;;;;5008705;28;20293;-65
2021/01/11 02:25:14;;;;;;;17.67;9.40;;;-2.40;99.90;;;;;;5011485;28;20172;-62
2021/01/11 02:27:55;;;;;;;15.40;8.80;;;-2.40;99.90;;;;;;5012782;28;20176;-65
2021/01/11 02:30:24;;;;;;;16.20;9.52;;;-2.50;99.90;;;;;;5008911;28;20184;-63
2021/01/11 02:32:57;;;;;;;14.95;8.98;;;-2.50;99.90;;;;;;5012955;28;20220;-64
2021/01/11 02:35:24;;;;;;;15.07;8.93;;;-2.50;99.90;;;;;;5003943;28;20216;-64
2021/01/11 02:37:51;;;;;;;16.10;9.02;;;-2.40;99.90;;;;;;5013000;28;20180;-64
2021/01/11 02:40:16;;;;;;;14.93;8.00;;;-2.40;99.90;;;;;;5006562;28;20205;-63
2021/01/11 02:42:42;;;;;;;14.47;8.23;;;-2.50;99.90;;;;;;5012802;28;20322;-65
2021/01/11 02:45:09;;;;;;;15.07;8.73;;;-2.50;99.90;;;;;;5009890;28;20650;-63
2021/01/11 02:47:46;;;;;;;13.80;8.10;;;-2.50;99.90;;;;;;5004707;28;20169;-64
2021/01/11 02:50:22;;;;;;;13.25;8.10;;;-2.40;99.90;;;;;;5011904;28;20196;-65
2021/01/11 02:53:03;;;;;;;14.65;8.68;;;-2.40;99.90;;;;;;5012049;28;20188;-64
2021/01/11 02:55:52;;;;;;;16.48;8.80;;;-2.50;99.90;;;;;;5003285;28;20192;-64
2021/01/11 02:58:44;;;;;;;13.65;7.82;;;-2.50;99.90;;;;;;5005933;28;20527;-62
2021/01/11 03:01:11;;;;;;;13.10;7.47;;;-2.40;99.90;;;;;;5005406;28;20177;-63
2021/01/11 03:03:39;;;;;;;12.30;7.70;;;-2.50;99.90;;;;;;5005715;28;20177;-65
2021/01/11 03:06:10;;;;;;;14.15;7.78;;;-2.40;99.90;;;;;;5004677;28;20757;-64
2021/01/11 03:08:36;;;;;;;13.35;7.82;;;-2.30;99.90;;;;;;5012286;28;20168;-64
2021/01/11 03:11:01;;;;;;;14.67;8.20;;;-2.20;99.90;;;;;;5009902;28;20537;-63
2021/01/11 03:13:27;;;;;;;13.77;7.60;;;-2.20;99.90;;;;;;5006156;28;20172;-63
2021/01/11 03:15:52;;;;;;;13.27;8.20;;;-2.10;99.90;;;;;;5012064;28;20234;-64
2021/01/11 03:18:18;;;;;;;13.53;7.70;;;-2.20;99.90;;;;;;5012543;28;20554;-63
2021/01/11 03:20:43;;;;;;;15.17;8.53;;;-2.20;99.90;;;;;;5011873;28;20199;-64
2021/01/11 03:23:09;;;;;;;13.43;8.03;;;-2.30;99.90;;;;;;5012005;28;20697;-64
2021/01/11 03:25:35;;;;;;;11.23;7.47;;;-2.20;99.90;;;;;;5018358;28;20211;-65
2021/01/11 03:28:01;;;;;;;12.57;7.10;;;-2.10;99.90;;;;;;5031580;28;20179;-64
2021/01/11 03:30:27;;;;;;;14.80;7.28;;;-1.90;99.90;;;;;;5031470;28;20192;-64
2021/01/11 03:32:52;;;;;;;11.47;7.37;;;-1.80;99.90;;;;;;5031852;28;20214;-63
2021/01/11 03:35:18;;;;;;;13.57;7.97;;;-1.70;99.90;;;;;;5031385;28;20191;-65
2021/01/11 03:37:43;;;;;;;12.13;7.67;;;-1.70;99.90;;;;;;5031353;28;20180;-64
2021/01/11 03:40:10;;;;;;;12.47;7.53;;;-1.70;99.90;;;;;;5031329;28;20199;-63
2021/01/11 03:42:39;;;;;;;13.32;8.07;;;-1.80;99.90;;;;;;5031374;28;20180;-64
2021/01/11 03:45:06;;;;;;;12.40;7.22;;;-2.00;99.90;;;;;;5051410;28;20265;-65
2021/01/11 03:47:32;;;;;;;14.63;8.32;;;-2.20;99.90;;;;;;5051487;28;20593;-67
2021/01/11 03:49:58;;;;;;;17.47;8.00;;;-2.20;99.90;;;;;;5051319;28;20226;-63
2021/01/11 03:52:24;;;;;;;14.50;8.17;;;-2.20;99.90;;;;;;5051156;28;20649;-62
2021/01/11 03:54:50;;;;;;;10.98;7.40;;;-2.20;99.90;;;;;;5051248;28;20255;-62
2021/01/11 03:57:16;;;;;;;14.80;8.57;;;-2.00;99.90;;;;;;5050930;28;20270;-65
2021/01/11 03:59:41;;;;;;;13.27;8.93;;;-2.20;99.90;;;;;;5051341;28;20552;-64
2021/01/11 04:02:07;;;;;;;14.57;8.53;;;-2.40;99.90;;;;;;5051269;28;20182;-66
2021/01/11 04:04:33;;;;;;;17.73;9.73;;;-2.50;99.90;;;;;;5051332;28;20178;-63
2021/01/11 04:06:58;;;;;;;16.47;9.50;;;-2.50;99.90;;;;;;5050920;28;20187;-65
2021/01/11 04:09:25;;;;;;;15.20;8.77;;;-2.40;99.90;;;;;;5051062;28;20517;-63
2021/01/11 04:11:51;;;;;;;18.02;9.93;;;-2.30;99.90;;;;;;5050953;28;20705;-63
2021/01/11 04:14:18;;;;;;;16.63;9.73;;;-2.40;99.90;;;;;;5050724;28;20218;-62
2021/01/11 04:16:44;;;;;;;16.63;9.60;;;-2.50;99.90;;;;;;5050633;28;20182;-65
2021/01/11 04:19:11;;;;;;;15.13;9.70;;;-2.60;99.90;;;;;;5050562;28;20203;-64
2021/01/11 04:21:40;;;;;;;17.00;9.15;;;-2.70;99.90;;;;;;5051053;28;20174;-63
2021/01/11 04:24:06;;;;;;;18.40;9.98;;;-2.70;99.90;;;;;;5050993;28;20174;-64
2021/01/11 04:26:32;;;;;;;17.47;10.57;;;-2.60;99.90;;;;;;5037426;28;20203;-64
2021/01/11 04:28:57;;;;;;;16.03;8.47;;;-2.70;99.90;;;;;;5030898;28;20422;-63
2021/01/11 04:31:23;;;;;;;14.60;8.83;;;-2.80;99.90;;;;;;5030869;28;20206;-64
2021/01/11 04:33:49;;;;;;;14.97;8.33;;;-2.80;99.90;;;;;;5030774;28;20187;-62
2021/01/11 04:36:14;;;;;;;14.60;8.47;;;-2.90;99.90;;;;;;5031214;28;20175;-63
2021/01/11 04:38:40;;;;;;;16.10;8.70;;;-3.00;99.90;;;;;;5050401;28;20214;-62
2021/01/11 04:41:05;;;;;;;16.93;9.77;;;-3.00;99.90;;;;;;5050720;28;20178;-65
2021/01/11 04:43:35;;;;;;;17.17;9.40;;;-3.10;99.90;;;;;;5050315;28;20171;-64
2021/01/11 04:46:01;;;;;;;17.55;9.35;;;-3.00;99.90;;;;;;5049434;28;20506;-63
2021/01/11 04:48:27;;;;;;;17.00;8.77;;;-2.80;99.90;;;;;;5050836;28;20182;-64
2021/01/11 04:50:53;;;;;;;13.15;8.25;;;-2.60;99.90;;;;;;5050457;28;20634;-62
2021/01/11 04:53:20;;;;;;;18.30;9.50;;;-2.60;99.90;;;;;;5050586;28;20187;-63
2021/01/11 04:55:46;;;;;;;15.98;8.35;;;-2.70;99.90;;;;;;5050279;28;20194;-64
2021/01/11 04:58:12;;;;;;;16.47;8.77;;;-2.70;99.90;;;;;;5050715;28;20665;-64
2021/01/11 05:00:39;;;;;;;16.42;8.68;;;-2.90;99.90;;;;;;5050198;28;20213;-63
2021/01/11 05:03:07;;;;;;;15.52;8.95;;;-3.00;99.90;;;;;;5050588;28;20611;-62
2021/01/11 05:05:37;;;;;;;17.48;9.20;;;-3.00;99.90;;;;;;5050535;28;20258;-62
2021/01/11 05:08:04;;;;;;;15.88;9.65;;;-3.10;99.90;;;;;;5050203;28;20263;-64
2021/01/11 05:10:31;;;;;;;17.10;8.93;;;-3.10;99.90;;;;;;5050451;28;20209;-64
2021/01/11 05:12:58;;;;;;;14.27;8.70;;;-3.10;99.90;;;;;;5050454;28;20587;-63
2021/01/11 05:15:30;;;;;;;15.07;9.02;;;-3.20;99.90;;;;;;5050685;28;20657;-62
2021/01/11 05:17:56;;;;;;;16.48;9.25;;;-3.10;99.90;;;;;;5050357;28;20175;-64
2021/01/11 05:20:27;;;;;;;14.57;8.82;;;-3.10;99.90;;;;;;5050064;28;20260;-63
2021/01/11 05:22:58;;;;;;;14.45;8.57;;;-3.10;99.90;;;;;;5050008;28;20554;-62
2021/01/11 05:25:28;;;;;;;14.65;8.40;;;-3.10;99.90;;;;;;5050482;28;20198;-63
2021/01/11 05:28:06;;;;;;;15.75;8.73;;;-3.00;99.90;;;;;;5052229;28;20186;-64
2021/01/11 05:30:38;;;;;;;14.55;8.82;;;-3.10;99.90;;;;;;5052542;28;20291;-65
2021/01/11 05:33:06;;;;;;;17.27;9.70;;;-3.00;99.90;;;;;;5053436;28;20171;-64
2021/01/11 05:35:32;;;;;;;17.80;8.40;;;-3.00;99.90;;;;;;5053825;28;20353;-64
2021/01/11 05:38:01;;;;;;;16.48;9.35;;;-2.70;99.90;;;;;;5052634;28;20218;-65
2021/01/11 05:40:29;;;;;;;16.83;9.55;;;-2.70;99.90;;;;;;5053403;28;20207;-65
2021/01/11 05:43:00;;;;;;;18.20;9.35;;;-2.70;99.90;;;;;;5053741;28;20181;-64
2021/01/11 05:45:30;;;;;;;18.55;9.40;;;-2.60;99.90;;;;;;5053411;28;20181;-65
2021/01/11 05:48:05;;;;;;;18.73;9.27;;;-2.70;99.90;;;;;;5052466;28;20225;-65
2021/01/11 05:50:50;;;;;;;17.63;9.57;;;-2.80;99.90;;;;;;5053611;28;20228;-64
2021/01/11 05:53:23;;;;;;;17.23;9.52;;;-2.90;99.90;;;;;;5053167;28;20171;-64
2021/01/11 05:55:56;;;;;;;22.27;9.70;;;-3.00;99.90;;;;;;5052126;28;20211;-65
2021/01/11 05:58:26;;;;;;;17.05;11.20;;;-3.10;99.90;;;;;;5035540;28;20887;-66
2021/01/11 06:00:52;;;;;;;19.48;10.48;;;-3.10;99.90;;;;;;5053318;28;20207;-66
2021/01/11 06:03:18;;;;;;;19.70;10.77;;;-3.20;99.90;;;;;;5053238;28;20179;-63
2021/01/11 06:05:44;;;;;;;18.50;10.17;;;-3.20;99.90;;;;;;5052955;28;20184;-64
2021/01/11 06:08:12;;;;;;;18.95;9.73;;;-3.20;99.90;;;;;;5053154;28;20228;-65
2021/01/11 06:10:39;;;;;;;20.88;9.80;;;-3.30;99.90;;;;;;5052876;28;20190;-64
2021/01/11 06:13:09;;;;;;;16.38;9.07;;;-3.30;99.90;;;;;;5053128;28;20178;-64
2021/01/11 06:15:36;;;;;;;16.42;8.95;;;-3.40;99.90;;;;;;5052865;28;20175;-64
2021/01/11 06:18:06;;;;;;;17.38;10.38;;;-3.30;99.90;;;;;;5053063;28;20228;-62
2021/01/11 06:20:33;;;;;;;20.17;11.15;;;-3.40;99.90;;;;;;5052955;28;20260;-64
2021/01/11 06:22:59;;;;;;;17.15;9.57;;;-3.30;99.90;;;;;;5052839;28;20209;-62
2021/01/11 06:25:25;;;;;;;21.33;10.38;;;-3.30;99.90;;;;;;5052990;28;20306;-66
2021/01/11 06:28:03;;;;;;;17.70;10.70;;;-3.30;99.90;;;;;;5052814;28;20261;-64
2021/01/11 06:30:38;;;;;;;22.92;10.27;;;-3.30;99.90;;;;;;5052850;28;20510;-63
2021/01/11 06:35:34;;;;;;;21.17;9.70;;;-3.30;99.90;;;;;;5052780;28;20537;-64
2021/01/11 06:38:07;;;;;;;22.75;10.18;;;-3.40;99.90;;;;;;5051871;28;20217;-64
2021/01/11 06:40:33;;;;;;;18.60;9.60;;;-3.40;99.90;;;;;;5052402;28;20210;-66
2021/01/11 06:43:00;;;;;;;17.52;9.52;;;-3.50;99.90;;;;;;5052197;28;20637;-64
2021/01/11 06:45:55;;;;;;;18.45;10.48;;;-3.50;99.90;;;;;;5052315;28;20186;-63
2021/01/11 06:48:22;;;;;;;19.77;11.07;;;-3.50;99.90;;;;;;5035215;28;20578;-64
2021/01/11 06:50:49;;;;;;;19.85;11.50;;;-3.50;99.90;;;;;;5051291;28;20190;-62
2021/01/11 06:53:26;;;;;;;17.40;10.63;;;-3.40;99.90;;;;;;5052856;28;20187;-63
2021/01/11 06:56:09;;;;;;;22.05;11.35;;;-3.50;99.90;;;;;;5052399;28;20178;-65
2021/01/11 06:58:44;;;;;;;21.60;10.80;;;-3.30;99.90;;;;;;5052061;28;20175;-62
2021/01/11 07:01:14;;;;;;;19.55;10.73;;;-3.10;99.90;;;;;;5051687;28;20186;-65
2021/01/11 07:03:47;;;;;;;24.35;12.93;;;-3.00;99.90;;;;;;5033985;28;20258;-65
2021/01/11 07:06:32;;;;;;;22.35;11.95;;;-2.90;99.90;;;;;;5051205;28;20423;-62
2021/01/11 07:09:18;;;;;;;25.13;11.70;;;-2.90;99.90;;;;;;5051797;28;20185;-64
2021/01/11 07:11:51;;;;;;;20.05;10.93;;;-2.90;99.90;;;;;;5051614;28;20171;-64
2021/01/11 07:14:21;;;;;;;19.40;11.32;;;-3.00;99.90;;;;;;5051113;28;20177;-66
2021/01/11 07:16:49;;;;;;;18.77;10.63;;;-3.10;99.90;;;;;;5033177;28;20187;-65
2021/01/11 07:19:20;;;;;;;21.25;11.82;;;-3.10;99.90;;;;;;5051537;28;20209;-64
2021/01/11 07:21:50;;;;;;;22.92;11.55;;;-3.20;99.90;;;;;;5051238;28;20179;-63
2021/01/11 07:24:16;;;;;;;19.48;11.18;;;-3.20;99.90;;;;;;5051415;28;20246;-62
2021/01/11 07:26:43;;;;;;;20.52;10.75;;;-3.30;99.90;;;;;;5051880;28;20676;-63
2021/01/11 07:29:11;;;;;;;23.45;11.63;;;-3.30;99.90;;;;;;5051592;28;20179;-63
2021/01/11 07:31:42;;;;;;;22.60;11.45;;;-3.30;99.90;;;;;;5051356;28;20256;-62
2021/01/11 07:34:14;;;;;;;22.60;12.00;;;-3.30;99.90;;;;;;5051410;28;20518;-62
2021/01/11 07:36:52;;;;;;;22.38;11.48;;;-3.30;99.90;;;;;;5051366;28;20175;-63
2021/01/11 07:39:27;;;;;;;19.50;11.13;;;-3.40;99.90;;;;;;5049987;28;20556;-62
2021/01/11 07:42:04;;;;;;;21.30;11.20;;;-3.40;99.90;;;;;;5050583;28;20167;-64
2021/01/11 07:44:34;;;;;;;22.50;11.18;;;-3.40;99.90;;;;;;5051114;28;20268;-64
2021/01/11 07:47:05;;;;;;;21.83;11.57;;;-3.30;99.90;;;;;;5051110;28;20266;-64
2021/01/11 07:49:34;;;;;;;20.17;11.02;;;-3.40;99.90;;;;;;5050363;28;20221;-64
2021/01/11 07:52:21;;;;;;;23.80;12.50;;;-3.20;99.90;;;;;;5051170;28;20266;-64
2021/01/11 07:54:58;;;;;;;19.92;10.07;;;-3.20;99.90;;;;;;5050724;28;20544;-64
2021/01/11 07:57:30;;;;;;;22.17;10.93;;;-3.20;99.90;;;;;;5033166;28;20269;-65
2021/01/11 08:00:00;;;;;;;23.13;11.63;;;-3.20;99.90;;;;;;5050738;28;20658;-67
2021/01/11 08:02:27;;;;;;;18.88;10.65;;;-3.20;99.90;;;;;;5051075;28;20163;-64
2021/01/11 08:04:52;;;;;;;21.80;12.05;;;-3.20;99.90;;;;;;5050718;28;20175;-67
2021/01/11 08:07:26;;;;;;;21.40;11.80;;;-3.10;99.90;;;;;;5050995;28;20175;-65
2021/01/11 08:09:55;;;;;;;21.52;11.60;;;-3.10;99.90;;;;;;5050185;28;20187;-64
2021/01/11 08:12:21;;;;;;;23.83;12.18;;;-3.20;99.90;;;;;;5051044;28;20555;-65
2021/01/11 08:14:48;;;;;;;23.80;11.63;;;-3.10;99.90;;;;;;5050912;28;20258;-64
2021/01/11 08:17:17;;;;;;;23.42;12.13;;;-3.00;99.90;;;;;;5050611;28;20259;-64
2021/01/11 08:19:51;;;;;;;23.90;11.93;;;-2.80;99.90;;;;;;5048989;28;20268;-65
2021/01/11 08:22:18;;;;;;;18.73;11.63;;;-2.70;99.90;;;;;;5050484;28;20186;-64
2021/01/11 08:24:48;;;;;;;22.52;11.20;;;-2.50;99.90;;;;;;5050389;28;20163;-65
2021/01/11 08:27:24;;;;;;;21.90;11.95;;;-2.50;99.90;;;;;;5050685;28;20223;-64
2021/01/11 08:29:50;;;;;;;20.27;10.73;;;-2.40;99.90;;;;;;5050444;28;20225;-65
2021/01/11 08:32:19;;;;;;;18.10;9.90;;;-2.30;99.90;;;;;;5050199;28;20649;-64
2021/01/11 08:34:45;;;;;;;18.35;10.77;;;-2.20;99.90;;;;;;5050575;28;20262;-64
2021/01/11 08:37:22;;;;;;;19.27;10.80;;;-2.20;99.90;;;;;;5050125;28;20277;-63
2021/01/11 08:39:55;;;;;;;20.88;12.07;;;-2.30;99.90;;;;;;5050221;28;20277;-63
2021/01/11 08:42:22;;;;;;;18.17;10.88;;;-2.30;99.90;;;;;;5050202;28;20171;-64
2021/01/11 08:44:48;;;;;;;22.67;11.75;;;-2.30;99.90;;;;;;5050323;28;20213;-64
2021/01/11 08:47:13;;;;;;;23.30;12.37;;;-2.30;99.90;;;;;;5050427;28;20648;-65
2021/01/11 08:50:05;;;;;;;22.23;11.10;;;-2.30;99.90;;;;;;5050726;28;20587;-64
2021/01/11 08:52:33;;;;;;;18.83;11.35;;;-2.30;99.90;;;;;;5050134;28;20183;-63
2021/01/11 08:55:12;;;;;;;23.95;11.73;;;-2.20;99.90;;;;;;5050445;28;20187;-64
2021/01/11 08:57:38;;;;;;;19.05;12.20;;;-2.00;99.90;;;;;;5049358;28;20207;-65
2021/01/11 09:00:08;;;;;;;20.67;11.75;;;-1.80;99.90;;;;;;5050147;28;20207;-66
2021/01/11 09:02:34;;;;;;;22.50;12.20;;;-1.80;99.90;;;;;;5053647;28;20224;-63
2021/01/11 09:05:14;;;;;;;20.85;11.70;;;-1.70;99.90;;;;;;5054034;28;20193;-63
2021/01/11 09:07:40;;;;;;;19.27;11.75;;;-1.60;99.90;;;;;;5054268;28;20213;-64
2021/01/11 09:10:32;;;;;;;17.60;11.07;;;-1.50;99.90;;;;;;5053708;28;20187;-63
2021/01/11 09:13:15;;;;;;;22.77;11.80;;;-1.50;99.90;;;;;;5054265;28;20190;-64
2021/01/11 09:15:41;;;;;;;20.70;11.43;;;-1.50;99.90;;;;;;5053378;28;20429;-63
2021/01/11 09:18:07;;;;;;;21.50;12.63;;;-1.50;99.90;;;;;;5053696;28;20428;-64
2021/01/11 09:20:44;;;;;;;20.50;11.77;;;-1.40;99.90;;;;;;5053815;28;20205;-64
2021/01/11 09:23:11;;;;;;;21.90;12.23;;;-1.30;99.90;;;;;;5053744;28;20409;-65
2021/01/11 09:25:37;;;;;;;22.53;12.67;;;-1.20;99.90;;;;;;5054113;28;20186;-65
2021/01/11 09:28:05;;;;;;;23.57;14.33;;;-1.10;99.90;;;;;;5053485;28;20421;-62
2021/01/11 09:30:31;;;;;;;18.00;11.50;;;-1.00;99.90;;;;;;5053721;28;20409;-65
2021/01/11 09:32:57;;;;;;;22.60;12.43;;;-0.70;99.90;;;;;;5053565;28;20474;-66
2021/01/11 09:35:23;;;;;;;20.03;11.70;;;-0.50;99.90;;;;;;5053493;28;20414;-64
2021/01/11 09:37:49;;;;;;;18.90;11.60;;;-0.40;99.90;;;;;;5053545;28;20175;-65
2021/01/11 09:40:16;;;;;;;23.90;11.63;;;-0.30;99.90;;;;;;5053454;28;20459;-65
2021/01/11 09:42:42;;;;;;;19.47;12.07;;;-0.20;99.90;;;;;;5053749;28;20179;-66
2021/01/11 09:45:08;;;;;;;21.47;12.37;;;-0.10;99.90;;;;;;5053525;28;20439;-65
2021/01/11 09:47:35;;;;;;;20.83;13.17;;;-0.20;99.90;;;;;;5053255;28;20207;-66
2021/01/11 09:50:00;;;;;;;23.20;13.30;;;-0.10;99.90;;;;;;5053633;28;20514;-65
2021/01/11 09:52:26;;;;;;;18.50;11.67;;;-0.10;99.90;;;;;;5053283;28;20445;-66
2021/01/11 09:54:52;;;;;;;20.37;12.23;;;0.00;99.90;;;;;;5053234;28;20270;-65
2021/01/11 09:57:17;;;;;;;21.57;12.30;;;0.10;99.90;;;;;;5053402;28;20193;-67
2021/01/11 09:59:43;;;;;;;20.23;13.37;;;0.10;99.90;;;;;;5053006;28;20209;-66
2021/01/11 10:02:09;;;;;;;23.50;12.63;;;0.20;99.90;;;;;;5053330;28;20610;-66
2021/01/11 10:04:35;;;;;;;20.20;12.87;;;0.30;99.90;;;;;;5053146;28;20191;-66
2021/01/11 10:07:01;;;;;;;21.63;12.60;;;0.30;99.90;;;;;;5053186;28;20418;-66
2021/01/11 10:09:28;;;;;;;19.53;12.33;;;0.40;99.90;;;;;;5053237;28;20537;-67
2021/01/11 10:11:59;;;;;;;19.33;11.57;;;0.50;99.90;;;;;;5051788;28;20417;-66
2021/01/11 10:14:26;;;;;;;18.90;11.43;;;0.50;99.90;;;;;;5052170;28;20467;-65
2021/01/11 10:16:52;;;;;;;19.13;11.20;;;0.50;99.90;;;;;;5052555;28;20705;-65
2021/01/11 10:19:22;;;;;;;17.77;12.03;;;0.60;99.90;;;;;;5052544;28;20453;-65
2021/01/11 10:21:48;;;;;;;18.13;11.40;;;0.70;99.90;;;;;;5052523;28;20417;-66
2021/01/11 10:24:15;;;;;;;20.23;12.23;;;0.70;99.90;;;;;;5052962;28;20417;-65
2021/01/11 10:26:45;;;;;;;16.77;12.07;;;0.80;99.90;;;;;;5051553;28;20531;-67
2021/01/11 10:29:12;;;;;;;16.60;11.10;;;0.80;99.90;;;;;;5052408;28;20425;-64
2021/01/11 10:31:39;;;;;;;17.73;11.37;;;0.90;99.90;;;;;;5053057;28;20424;-66
2021/01/11 10:34:05;;;;;;;23.67;12.00;;;0.90;99.90;;;;;;5052543;28;20421;-66
2021/01/11 10:36:43;;;;;;;17.40;11.20;;;1.00;99.90;;;;;;5052651;28;20481;-65
2021/01/11 10:39:09;;;;;;;15.73;10.03;;;1.00;99.90;;;;;;5052359;28;20170;-64
2021/01/11 10:41:34;;;;;;;18.03;11.17;;;1.00;99.90;;;;;;5052414;28;20460;-66
2021/01/11 10:44:00;;;;;;;14.33;9.77;;;1.00;99.90;;;;;;5052272;28;20414;-66
2021/01/11 10:46:26;;;;;;;15.27;9.70;;;1.20;99.90;;;;;;5052699;28;20184;-64
2021/01/11 10:48:53;;;;;;;13.90;8.87;;;1.20;99.90;;;;;;5052373;28;20617;-67
2021/01/11 10:51:21;;;;;;;17.17;9.83;;;1.20;98.70;;;;;;5052406;28;20409;-66
2021/01/11 10:53:46;;;;;;;13.67;9.20;;;1.20;98.80;;;;;;5052407;28;20436;-65
2021/01/11 10:56:12;;;;;;;14.23;10.03;;;1.20;99.40;;;;;;5051839;28;20405;-64
2021/01/11 10:58:38;;;;;;;15.70;9.53;;;1.30;99.10;;;;;;5052201;28;20766;-66
2021/01/11 11:01:11;;;;;;;13.50;9.47;;;1.40;98.70;;;;;;5034259;28;20209;-65
2021/01/11 11:03:37;;;;;;;15.80;9.50;;;1.40;98.90;;;;;;5050918;28;20622;-64
2021/01/11 11:06:02;;;;;;;13.97;10.03;;;1.50;98.60;;;;;;5034361;28;20483;-66
2021/01/11 11:08:28;;;;;;;17.30;11.67;;;1.60;99.20;;;;;;5051557;28;20179;-65
2021/01/11 11:10:54;;;;;;;19.60;12.03;;;1.70;98.90;;;;;;5051886;28;20641;-64
2021/01/11 11:13:19;;;;;;;15.73;10.83;;;1.80;99.00;;;;;;5051805;28;20205;-65
2021/01/11 11:15:46;;;;;;;14.70;10.03;;;1.80;98.90;;;;;;5052267;28;20194;-64
2021/01/11 11:18:12;;;;;;;17.67;11.23;;;1.80;98.90;;;;;;5051528;28;20618;-64
2021/01/11 11:20:39;;;;;;;18.80;11.47;;;1.80;99.70;;;;;;5051413;28;20544;-65
2021/01/11 11:23:05;;;;;;;15.90;9.97;;;1.90;99.50;;;;;;5051611;28;20445;-66
2021/01/11 11:25:31;;;;;;;17.13;10.93;;;1.90;98.60;;;;;;5051288;28;20922;-64
2021/01/11 11:27:57;;;;;;;18.37;10.37;;;2.00;99.00;;;;;;5052060;28;20445;-67
2021/01/11 11:30:22;;;;;;;14.93;9.20;;;2.10;99.00;;;;;;5051580;28;20215;-68
2021/01/11 11:32:49;;;;;;;16.63;9.50;;;2.30;97.80;;;;;;5051741;28;20202;-66
2021/01/11 11:35:17;;;;;;;15.13;9.50;;;2.40;96.90;;;;;;5051523;28;20182;-66
2021/01/11 11:37:43;;;;;;;13.70;9.73;;;2.60;97.30;;;;;;5051199;28;20439;-65
2021/01/11 11:40:11;;;;;;;16.50;11.27;;;2.80;97.40;;;;;;5051311;28;20464;-66
2021/01/11 11:42:37;;;;;;;14.90;9.90;;;3.00;97.20;;;;;;5051351;28;20425;-66
2021/01/11 11:45:06;;;;;;;15.37;9.77;;;3.40;96.60;;;;;;5051320;28;20993;-64
2021/01/11 11:47:33;;;;;;;14.90;9.30;;;3.50;94.90;;;;;;5051159;28;20417;-65
2021/01/11 11:49:59;;;;;;;14.90;10.47;;;3.50;95.80;;;;;;5051054;28;20912;-64
2021/01/11 11:52:24;;;;;;;12.00;8.93;;;3.70;93.60;;;;;;5050952;28;20421;-66
2021/01/11 11:54:50;;;;;;;13.97;9.37;;;3.90;94.70;;;;;;5050701;28;20179;-65
2021/01/11 11:57:15;;;;;;;15.00;10.33;;;4.30;93.70;;;;;;5050950;28;20179;-64
2021/01/11 11:59:41;;;;;;;10.53;7.73;;;4.50;94.40;;;;;;5050947;28;20198;-63
2021/01/11 12:02:14;;;;;;;11.73;8.40;;;4.70;91.60;;;;;;5050759;28;20229;-64
2021/01/11 12:04:41;;;;;;;11.43;8.73;;;4.50;91.10;;;;;;5050158;28;20217;-65
2021/01/11 12:07:06;;;;;;;12.13;8.70;;;4.80;91.00;;;;;;5050399;28;20883;-63
2021/01/11 12:09:38;;;;;;;12.27;8.00;;;4.90;89.80;;;;;;5050628;28;20414;-63
2021/01/11 12:12:04;;;;;;;12.73;9.13;;;4.90;88.60;;;;;;5050867;28;20186;-64
2021/01/11 12:14:30;;;;;;;11.67;7.37;;;5.10;90.10;;;;;;5050360;28;20418;-63
2021/01/11 12:16:55;;;;;;;14.53;8.97;;;5.20;86.10;;;;;;5050562;28;20590;-64
2021/01/11 12:19:21;;;;;;;12.73;8.07;;;5.00;89.70;;;;;;5050671;28;20217;-63
2021/01/11 12:21:53;;;;;;;11.40;8.67;;;5.20;90.40;;;;;;5050340;28;20170;-64
2021/01/11 12:24:18;;;;;;;12.50;8.57;;;5.40;88.10;;;;;;5050533;28;20186;-65
2021/01/11 12:26:47;;;;;;;12.00;9.03;;;5.70;89.50;;;;;;5050737;28;20540;-66
2021/01/11 12:29:14;;;;;;;11.97;9.27;;;6.30;86.90;;;;;;5049064;28;20236;-64
2021/01/11 12:31:40;;;;;;;13.30;7.70;;;6.90;84.10;;;;;;5050188;28;20768;-65
2021/01/11 12:34:07;;;;;;;11.80;7.57;;;7.40;78.40;;;;;;5050087;28;20445;-65
2021/01/11 12:36:34;;;;;;;9.10;5.80;;;7.00;77.30;;;;;;5051610;28;20421;-65
2021/01/11 12:39:02;;;;;;;10.40;7.20;;;6.60;75.70;;;;;;5054484;28;20772;-64
2021/01/11 12:41:28;;;;;;;10.33;7.47;;;6.30;79.20;;;;;;5054320;28;20416;-65
2021/01/11 12:43:54;;;;;;;13.03;8.93;;;6.70;79.40;;;;;;5054639;28;20808;-63
2021/01/11 12:46:21;;;;;;;11.63;8.70;;;6.90;80.70;;;;;;5054444;28;20182;-64